Tison, Georgia
Current Conditions -  °F | °C
As of 11:15 PM on Sunday 23 Nov 2014 (Local Time) from KCWV Reporting Station
Thunderstorm Thunderstorm  
Wind Chill: 68°   Ceiling: 4300
Heat Index: 68°   Visibility: 4mi
Dew Point: 68°   Wind: 0mph
Humidity: 100%   Direction: NA
Pressure: 29.84"   Gusts: NA
Location:  31.9485°N, 81.9795°W
Report Text: KCWV 240415Z AUTO 00000KT 4SM TSRA SCT027 BKN043 OVC070 20/20 A2984 RMK AO2 LTG DSNT E THRU W
Loading
Personal Weather Stations






























Interactive Weather Map New forecast layout! Learn more

10-Day Weather Forecast

Advertisements
Track Severe Weather on mobile